Time;durP1;ratioP1;P1;durP2;ratioP2;P2;SDS_P1;SDS_P2;PMS_P1;PMS_P2;Temp;Humidity;BMP_temperature;BMP_pressure;BME280_temperature;BME280_humidity;BME280_pressure;Samples;Min_cycle;Max_cycle;Signal;HPM_P1;HPM_P2
2022/04/06 00:00:10;;;;;;;24.95;14.85;;;9.30;99.90;;;;;;4914872;29;20107;-87
2022/04/06 00:02:39;;;;;;;22.95;15.07;;;9.30;99.90;;;;;;4898064;29;20040;-86
2022/04/06 00:05:09;;;;;;;25.90;16.70;;;9.30;99.90;;;;;;4914797;29;20079;-87
2022/04/06 00:07:36;;;;;;;27.40;16.77;;;9.30;99.90;;;;;;4889965;29;20051;-87
2022/04/06 00:10:07;;;;;;;28.15;14.10;;;9.30;99.90;;;;;;4897904;29;20048;-86
2022/04/06 00:12:34;;;;;;;27.58;17.73;;;9.30;99.90;;;;;;4915214;29;20387;-87
2022/04/06 00:15:00;;;;;;;28.85;18.73;;;9.30;99.90;;;;;;4897611;29;20048;-87
2022/04/06 00:17:26;;;;;;;28.58;19.23;;;9.30;99.90;;;;;;4897568;29;20135;-87
2022/04/06 00:19:51;;;;;;;28.33;19.17;;;9.40;99.90;;;;;;4898637;29;20047;-88
2022/04/06 00:22:17;;;;;;;25.52;17.80;;;9.40;99.90;;;;;;4904731;29;20052;-89
2022/04/06 00:24:43;;;;;;;24.63;15.48;;;9.40;99.90;;;;;;4885765;29;20512;-87
2022/04/06 00:27:09;;;;;;;28.25;18.48;;;9.40;99.90;;;;;;4904007;29;20116;-87
2022/04/06 00:29:34;;;;;;;26.55;18.00;;;9.40;99.90;;;;;;4882678;29;20114;-87
2022/04/06 00:32:00;;;;;;;27.63;17.85;;;9.40;99.90;;;;;;4914148;29;20347;-87
2022/04/06 00:37:10;;;;;;;22.52;16.75;;;9.50;99.90;;;;;;4896950;29;20048;-87
2022/04/06 00:39:35;;;;;;;27.45;17.52;;;9.40;99.90;;;;;;4880830;29;20558;-87
2022/04/06 00:42:01;;;;;;;24.60;17.48;;;9.40;99.90;;;;;;4917706;29;20056;-87
2022/04/06 00:44:28;;;;;;;28.63;17.75;;;9.40;99.90;;;;;;4901435;29;20167;-86
2022/04/06 00:46:54;;;;;;;26.45;16.23;;;9.40;99.90;;;;;;4897206;29;20044;-86
2022/04/06 00:49:20;;;;;;;24.98;17.23;;;9.40;99.90;;;;;;4897189;29;20114;-86
2022/04/06 00:51:50;;;;;;;24.95;13.77;;;9.40;99.90;;;;;;4914703;29;20397;-89
2022/04/06 00:54:19;;;;;;;25.80;16.13;;;9.40;99.90;;;;;;4915419;29;20058;-88
2022/04/06 00:56:46;;;;;;;25.60;16.67;;;9.40;99.90;;;;;;4898105;29;20456;-87
2022/04/06 00:59:14;;;;;;;24.80;16.63;;;9.50;99.90;;;;;;4889181;29;20643;-86
2022/04/06 01:01:40;;;;;;;25.25;16.08;;;9.50;99.90;;;;;;4896936;29;20497;-86
2022/04/06 01:04:06;;;;;;;26.95;16.67;;;9.40;99.90;;;;;;4896236;29;20055;-86
2022/04/06 01:06:31;;;;;;;26.48;16.30;;;9.40;99.90;;;;;;4892254;29;20073;-86
2022/04/06 01:08:57;;;;;;;25.73;15.93;;;9.50;99.90;;;;;;4896860;29;20050;-88
2022/04/06 01:11:24;;;;;;;26.85;15.90;;;9.40;99.90;;;;;;4913957;29;20398;-86
2022/04/06 01:13:51;;;;;;;26.63;15.85;;;9.50;99.90;;;;;;4904813;29;20387;-86
2022/04/06 01:16:18;;;;;;;20.00;10.60;;;9.50;99.90;;;;;;4913249;29;20505;-86
2022/04/06 01:18:43;;;;;;;25.33;16.17;;;9.40;99.90;;;;;;4911999;29;20077;-87
2022/04/06 01:21:11;;;;;;;25.38;15.50;;;9.40;99.90;;;;;;4895772;29;20052;-87
2022/04/06 01:23:44;;;;;;;25.85;14.57;;;9.40;99.90;;;;;;4885353;29;20067;-87
2022/04/06 01:26:11;;;;;;;24.67;14.73;;;9.40;99.90;;;;;;4905607;29;20048;-86
2022/04/06 01:28:38;;;;;;;22.55;12.20;;;9.40;99.90;;;;;;4912907;29;20119;-86
2022/04/06 01:31:03;;;;;;;25.15;14.63;;;9.40;99.90;;;;;;4896381;29;20040;-88
2022/04/06 01:33:29;;;;;;;23.77;14.50;;;9.40;99.90;;;;;;4881699;29;20036;-86
2022/04/06 01:35:56;;;;;;;22.60;13.90;;;9.40;99.90;;;;;;4897250;29;20052;-87
2022/04/06 01:38:22;;;;;;;24.55;13.90;;;9.40;99.90;;;;;;4897442;29;20458;-86
2022/04/06 01:40:48;;;;;;;23.27;12.95;;;9.40;99.90;;;;;;4917217;29;20075;-87
2022/04/06 01:43:13;;;;;;;22.67;14.05;;;9.40;99.90;;;;;;4915888;29;20048;-86
2022/04/06 01:45:39;;;;;;;20.73;10.93;;;9.40;99.90;;;;;;4937262;29;20052;-86
2022/04/06 01:48:05;;;;;;;23.02;13.50;;;9.40;99.90;;;;;;4912828;29;20410;-86
2022/04/06 01:53:15;;;;;;;23.30;12.70;;;9.40;99.90;;;;;;4921927;29;20047;-86
2022/04/06 01:55:41;;;;;;;21.20;12.73;;;9.40;99.90;;;;;;4930170;29;20485;-86
2022/04/06 01:58:07;;;;;;;21.58;12.77;;;9.50;99.90;;;;;;4895287;29;20075;-86
2022/04/06 02:00:33;;;;;;;23.13;12.48;;;9.50;99.90;;;;;;4912347;29;20067;-86
2022/04/06 02:03:00;;;;;;;21.35;12.50;;;9.50;99.90;;;;;;4895760;29;20048;-86
2022/04/06 02:05:32;;;;;;;20.85;12.35;;;9.50;99.90;;;;;;4913814;29;20099;-86
2022/04/06 02:07:57;;;;;;;21.02;8.75;;;9.50;99.90;;;;;;4911629;29;20103;-87
2022/04/06 02:10:23;;;;;;;23.83;11.27;;;9.40;99.90;;;;;;4914438;29;20087;-86
2022/04/06 02:12:50;;;;;;;23.58;11.70;;;9.40;99.90;;;;;;4895820;29;20494;-86
2022/04/06 02:15:16;;;;;;;21.92;11.20;;;9.50;99.90;;;;;;4911207;29;20052;-85
2022/04/06 02:17:42;;;;;;;21.35;11.00;;;9.50;99.90;;;;;;4896042;29;20408;-85
2022/04/06 02:20:08;;;;;;;16.75;8.23;;;9.50;99.90;;;;;;4912246;29;20127;-84
2022/04/06 02:22:34;;;;;;;31.35;10.55;;;9.50;99.90;;;;;;4898220;29;20062;-86
2022/04/06 02:25:00;;;;;;;16.00;7.68;;;9.40;99.90;;;;;;4930355;29;20036;-87
2022/04/06 02:27:25;;;;;;;20.50;9.60;;;9.40;99.90;;;;;;4899540;29;20472;-87
2022/04/06 02:29:51;;;;;;;18.77;8.68;;;9.50;99.90;;;;;;4897328;29;20090;-85
2022/04/06 02:32:17;;;;;;;16.63;7.72;;;9.50;99.90;;;;;;4895345;29;20179;-86
2022/04/06 02:34:42;;;;;;;15.57;8.55;;;9.50;99.90;;;;;;4913075;29;20494;-86
2022/04/06 02:37:09;;;;;;;17.45;8.55;;;9.50;99.90;;;;;;4895551;29;20462;-86
2022/04/06 02:39:35;;;;;;;17.30;8.63;;;9.50;99.90;;;;;;4912914;29;20083;-86
2022/04/06 02:42:01;;;;;;;19.30;8.77;;;9.50;99.90;;;;;;4894386;29;20083;-85
2022/04/06 02:44:27;;;;;;;15.95;9.50;;;9.50;99.90;;;;;;4912790;29;20048;-87
2022/04/06 02:46:52;;;;;;;17.58;8.55;;;9.40;99.90;;;;;;4912819;29;20130;-87
2022/04/06 02:49:19;;;;;;;16.98;7.28;;;9.50;99.90;;;;;;4912283;29;20080;-85
2022/04/06 02:51:44;;;;;;;21.08;9.82;;;9.40;99.90;;;;;;4913091;29;20047;-86
2022/04/06 02:54:11;;;;;;;18.65;9.77;;;9.40;99.90;;;;;;4916412;29;20048;-86
2022/04/06 02:56:36;;;;;;;20.83;10.15;;;9.40;99.90;;;;;;4895398;29;20119;-86
2022/04/06 02:59:02;;;;;;;24.95;10.00;;;9.50;99.90;;;;;;4902047;29;20545;-86
2022/04/06 03:01:28;;;;;;;20.73;9.45;;;9.40;99.90;;;;;;4863901;29;20051;-86
2022/04/06 03:03:54;;;;;;;21.95;10.65;;;9.40;99.90;;;;;;4880289;29;20104;-85
2022/04/06 03:06:20;;;;;;;20.98;10.00;;;9.40;99.90;;;;;;4899440;29;20440;-86
2022/04/06 03:08:46;;;;;;;23.02;9.63;;;9.50;99.90;;;;;;4896692;29;20135;-86
2022/04/06 03:11:12;;;;;;;20.83;8.73;;;9.50;99.90;;;;;;4880010;29;20083;-86
2022/04/06 03:13:38;;;;;;;20.85;9.98;;;9.40;99.90;;;;;;4874947;29;20112;-88
2022/04/06 03:16:04;;;;;;;23.10;11.18;;;9.50;99.90;;;;;;4899399;29;20036;-88
2022/04/06 03:18:30;;;;;;;23.50;10.93;;;9.50;99.90;;;;;;4892909;29;20146;-86
2022/04/06 03:20:56;;;;;;;23.67;10.88;;;9.50;99.90;;;;;;4883317;29;20131;-86
2022/04/06 03:23:21;;;;;;;23.05;11.95;;;9.50;99.90;;;;;;4905327;29;20370;-85
2022/04/06 03:25:48;;;;;;;23.33;11.98;;;9.50;99.90;;;;;;4892550;29;20095;-85
2022/04/06 03:28:13;;;;;;;26.92;11.43;;;9.50;99.90;;;;;;4887280;29;20052;-87
2022/04/06 03:30:40;;;;;;;25.25;12.18;;;9.40;99.90;;;;;;4917214;29;20080;-86
2022/04/06 03:33:06;;;;;;;24.85;13.38;;;9.50;99.90;;;;;;4888430;29;20071;-85
2022/04/06 03:35:32;;;;;;;24.55;12.85;;;9.50;99.90;;;;;;4902459;29;20052;-86
2022/04/06 03:37:58;;;;;;;25.10;13.55;;;9.50;99.90;;;;;;4912592;29;20048;-86
2022/04/06 03:40:23;;;;;;;25.02;13.15;;;9.50;99.90;;;;;;4905480;29;20425;-87
2022/04/06 03:42:49;;;;;;;27.23;14.30;;;9.40;99.90;;;;;;4901817;29;20506;-86
2022/04/06 03:45:14;;;;;;;25.83;13.95;;;9.50;99.90;;;;;;4910295;29;20489;-86
2022/04/06 03:47:44;;;;;;;25.70;13.55;;;9.50;99.90;;;;;;4883267;29;20080;-87
2022/04/06 03:50:10;;;;;;;26.58;14.07;;;9.50;99.90;;;;;;4900306;29;20049;-87
2022/04/06 03:52:36;;;;;;;27.35;14.43;;;9.50;99.90;;;;;;4906034;29;20045;-87
2022/04/06 03:55:02;;;;;;;25.45;14.07;;;9.50;99.90;;;;;;4903590;29;20062;-87
2022/04/06 03:57:27;;;;;;;23.73;14.38;;;9.60;99.90;;;;;;4898872;29;20084;-87
2022/04/06 03:59:53;;;;;;;25.23;14.32;;;9.60;99.90;;;;;;4889230;29;20131;-86
2022/04/06 04:02:19;;;;;;;25.08;14.27;;;9.60;99.90;;;;;;4879649;29;20055;-88
2022/04/06 04:04:44;;;;;;;22.65;13.35;;;9.60;99.90;;;;;;4892593;29;20524;-87
2022/04/06 04:07:10;;;;;;;23.55;13.65;;;9.60;99.90;;;;;;4909165;29;20405;-87
2022/04/06 04:09:36;;;;;;;26.02;14.43;;;9.60;99.90;;;;;;4907595;29;20099;-84
2022/04/06 04:12:03;;;;;;;22.40;13.50;;;9.60;99.90;;;;;;4906251;29;20510;-86
2022/04/06 04:14:32;;;;;;;26.27;13.68;;;9.60;99.90;;;;;;4918424;29;20103;-86
2022/04/06 04:16:58;;;;;;;25.02;12.00;;;9.60;99.90;;;;;;4915329;29;20040;-87
2022/04/06 04:19:24;;;;;;;23.05;12.10;;;9.60;99.90;;;;;;4915103;29;20421;-87
2022/04/06 04:21:50;;;;;;;21.60;11.50;;;9.60;99.90;;;;;;4915716;29;20040;-87
2022/04/06 04:24:15;;;;;;;23.73;11.65;;;9.60;99.90;;;;;;4914001;29;20051;-88
2022/04/06 04:26:41;;;;;;;20.88;11.52;;;9.60;99.90;;;;;;4898228;29;20048;-86
2022/04/06 04:29:09;;;;;;;21.55;11.25;;;9.70;99.90;;;;;;4882025;29;20073;-87
2022/04/06 04:31:35;;;;;;;17.98;10.25;;;9.60;99.90;;;;;;4898480;29;20040;-87
2022/04/06 04:34:03;;;;;;;19.08;10.43;;;9.60;99.90;;;;;;4896683;29;20048;-86
2022/04/06 04:36:29;;;;;;;17.60;8.48;;;9.60;99.90;;;;;;4920965;29;20036;-88
2022/04/06 04:38:55;;;;;;;19.42;10.43;;;9.60;99.90;;;;;;4881095;29;20060;-88
2022/04/06 04:41:22;;;;;;;19.65;10.18;;;9.60;99.90;;;;;;4905095;29;20067;-87
2022/04/06 04:43:50;;;;;;;20.80;10.05;;;9.60;99.90;;;;;;4915135;29;20417;-86
2022/04/06 04:46:16;;;;;;;19.90;9.30;;;9.50;99.90;;;;;;4914265;29;20052;-87
2022/04/06 04:48:41;;;;;;;20.35;9.25;;;9.50;99.90;;;;;;4906697;29;20059;-87
2022/04/06 04:51:07;;;;;;;17.00;9.48;;;9.50;99.90;;;;;;4913777;29;20040;-86
2022/04/06 04:53:33;;;;;;;18.73;9.75;;;9.50;99.90;;;;;;4914793;29;20039;-87
2022/04/06 04:55:59;;;;;;;21.13;10.07;;;9.50;99.90;;;;;;4879478;29;20123;-87
2022/04/06 04:58:26;;;;;;;18.98;8.70;;;9.50;99.90;;;;;;4883340;29;20048;-87
2022/04/06 05:00:53;;;;;;;17.83;8.18;;;9.50;99.90;;;;;;4914787;29;20056;-88
2022/04/06 05:03:18;;;;;;;17.58;8.23;;;9.50;99.90;;;;;;4896422;29;20135;-88
2022/04/06 05:05:45;;;;;;;15.35;7.65;;;9.50;99.90;;;;;;4910117;29;20465;-86
2022/04/06 05:08:11;;;;;;;16.30;7.78;;;9.50;99.90;;;;;;4888592;29;20387;-90
2022/04/06 05:10:36;;;;;;;15.70;8.02;;;9.40;99.90;;;;;;4898409;29;20043;-92
2022/04/06 05:13:04;;;;;;;17.55;8.02;;;9.40;99.90;;;;;;4914293;29;20048;-88
2022/04/06 05:15:29;;;;;;;16.00;7.80;;;9.40;99.90;;;;;;4899044;29;20051;-90
2022/04/06 05:17:55;;;;;;;19.05;8.38;;;9.40;99.90;;;;;;4917142;29;20486;-90
2022/04/06 05:20:21;;;;;;;18.67;8.43;;;9.40;99.90;;;;;;4898385;29;20056;-91
2022/04/06 05:22:46;;;;;;;18.55;8.50;;;9.40;99.90;;;;;;4899242;29;20083;-91
2022/04/06 05:25:12;;;;;;;20.95;8.30;;;9.40;99.90;;;;;;4911256;29;20058;-91
2022/04/06 05:27:50;;;;;;;16.10;8.30;;;9.40;99.90;;;;;;4925670;29;20055;-90
2022/04/06 05:30:18;;;;;;;16.98;8.48;;;9.40;99.90;;;;;;4897959;29;20516;-91
2022/04/06 05:32:45;;;;;;;17.98;6.85;;;9.40;99.90;;;;;;4915150;29;20059;-87
2022/04/06 05:35:11;;;;;;;17.35;7.53;;;9.30;99.90;;;;;;4898097;29;20048;-91
2022/04/06 05:37:37;;;;;;;17.40;7.85;;;9.40;99.90;;;;;;4897489;29;20140;-89
2022/04/06 05:40:05;;;;;;;15.90;7.60;;;9.30;99.90;;;;;;4896619;29;20040;-88
2022/04/06 05:42:30;;;;;;;16.05;7.88;;;9.40;99.90;;;;;;4897178;29;20497;-88
2022/04/06 05:44:56;;;;;;;15.48;7.68;;;9.40;99.90;;;;;;4897287;29;20084;-90
2022/04/06 05:47:22;;;;;;;16.10;7.68;;;9.40;99.90;;;;;;4912084;29;20127;-89
2022/04/06 05:49:48;;;;;;;15.15;6.82;;;9.30;99.90;;;;;;4907875;29;20048;-92
2022/04/06 05:52:14;;;;;;;14.95;7.15;;;9.40;99.90;;;;;;4912855;29;20044;-88
2022/04/06 05:54:39;;;;;;;17.48;6.60;;;9.40;99.90;;;;;;4877790;29;20389;-91
2022/04/06 05:57:05;;;;;;;13.20;6.47;;;9.40;99.90;;;;;;4903051;29;20044;-90
2022/04/06 05:59:30;;;;;;;16.48;6.75;;;9.40;99.90;;;;;;4910819;29;20442;-91
2022/04/06 06:01:56;;;;;;;14.43;7.10;;;9.40;99.90;;;;;;4897819;29;20405;-89
2022/04/06 06:04:22;;;;;;;11.43;4.25;;;9.40;99.90;;;;;;4881592;29;20052;-88
2022/04/06 06:06:48;;;;;;;13.27;5.60;;;9.40;99.90;;;;;;4898157;29;20044;-90
2022/04/06 06:09:14;;;;;;;14.13;5.20;;;9.40;99.90;;;;;;4914577;29;20479;-87
2022/04/06 06:11:39;;;;;;;13.30;4.50;;;9.40;99.90;;;;;;4897420;29;20123;-90
2022/04/06 06:14:06;;;;;;;14.00;5.25;;;9.40;99.90;;;;;;4896183;29;20446;-89
2022/04/06 06:16:31;;;;;;;15.98;5.05;;;9.40;99.90;;;;;;4912187;29;20182;-88
2022/04/06 06:18:58;;;;;;;12.80;4.78;;;9.40;99.90;;;;;;4899112;29;20119;-87
2022/04/06 06:21:26;;;;;;;14.95;5.57;;;9.40;99.90;;;;;;4896533;29;20111;-88
2022/04/06 06:23:53;;;;;;;13.30;4.32;;;9.40;99.90;;;;;;4912309;29;20143;-91
2022/04/06 06:26:19;;;;;;;14.25;5.32;;;9.40;99.90;;;;;;4913057;29;20513;-89
2022/04/06 06:28:45;;;;;;;10.23;4.43;;;9.40;99.90;;;;;;4914556;29;20054;-88
2022/04/06 06:31:11;;;;;;;11.20;3.88;;;9.40;99.90;;;;;;4898373;29;20051;-91
2022/04/06 06:33:36;;;;;;;14.10;3.67;;;9.40;99.90;;;;;;4908762;29;20059;-90
2022/04/06 06:36:02;;;;;;;9.73;4.07;;;9.40;99.90;;;;;;4927602;29;20048;-90
2022/04/06 06:38:27;;;;;;;10.93;4.28;;;9.40;99.90;;;;;;4907560;29;20044;-90
2022/04/06 06:40:53;;;;;;;10.85;3.58;;;9.40;99.90;;;;;;4920325;29;20027;-90
2022/04/06 06:43:19;;;;;;;12.38;3.67;;;9.40;99.90;;;;;;4919428;29;20095;-90
2022/04/06 06:45:44;;;;;;;11.20;3.60;;;9.40;99.90;;;;;;4914737;29;20276;-89
2022/04/06 06:48:10;;;;;;;10.73;3.67;;;9.30;99.90;;;;;;4896626;29;20086;-92
2022/04/06 06:50:36;;;;;;;10.43;3.90;;;9.30;99.90;;;;;;4897988;29;20131;-90
2022/04/06 06:53:01;;;;;;;11.82;3.47;;;9.30;99.90;;;;;;4896918;29;20040;-90
2022/04/06 06:55:27;;;;;;;11.63;4.55;;;9.20;99.90;;;;;;4898732;29;20095;-89
2022/04/06 06:57:52;;;;;;;13.30;4.20;;;9.30;99.90;;;;;;4913419;29;20419;-86
2022/04/06 07:00:18;;;;;;;10.73;3.83;;;9.30;99.90;;;;;;4895850;29;20051;-87
2022/04/06 07:02:44;;;;;;;11.52;3.22;;;9.40;99.90;;;;;;4897681;29;20048;-86
2022/04/06 07:05:10;;;;;;;14.40;4.85;;;9.30;99.90;;;;;;4883634;29;20051;-87
2022/04/06 07:07:52;;;;;;;12.95;5.55;;;9.40;99.90;;;;;;4900317;29;20490;-87
2022/04/06 07:10:18;;;;;;;11.10;4.25;;;9.50;99.90;;;;;;4899350;29;20059;-86
2022/04/06 07:12:43;;;;;;;12.77;4.70;;;9.50;99.90;;;;;;4917186;29;20048;-89
2022/04/06 07:15:09;;;;;;;11.73;4.20;;;9.50;99.90;;;;;;4883555;29;20048;-88
2022/04/06 07:17:35;;;;;;;12.30;5.03;;;9.50;99.90;;;;;;4883962;29;20055;-88
2022/04/06 07:20:01;;;;;;;12.02;4.30;;;9.50;99.90;;;;;;4888174;29;20130;-86
2022/04/06 07:22:26;;;;;;;12.25;4.22;;;9.50;99.90;;;;;;4915398;29;20090;-86
2022/04/06 07:24:51;;;;;;;11.93;4.68;;;9.60;99.90;;;;;;4880917;29;20104;-87
2022/04/06 07:27:17;;;;;;;12.40;4.40;;;9.60;99.90;;;;;;4902970;29;20053;-88
2022/04/06 07:29:43;;;;;;;15.38;4.47;;;9.60;99.90;;;;;;4907134;29;20439;-88
2022/04/06 07:32:09;;;;;;;12.80;4.97;;;9.60;99.90;;;;;;4913432;29;20490;-88
2022/04/06 07:34:34;;;;;;;11.82;4.45;;;9.50;99.90;;;;;;4897893;29;20048;-87
2022/04/06 07:37:00;;;;;;;13.57;4.40;;;9.50;99.90;;;;;;4914429;29;20040;-87
2022/04/06 07:39:27;;;;;;;14.02;4.78;;;9.50;99.90;;;;;;4901432;29;20048;-88
2022/04/06 07:41:56;;;;;;;12.50;4.75;;;9.50;99.90;;;;;;4910764;29;20111;-87
2022/04/06 07:44:24;;;;;;;12.48;4.68;;;9.50;99.90;;;;;;4912611;29;20056;-87
2022/04/06 07:46:51;;;;;;;14.52;5.22;;;9.50;99.90;;;;;;4918803;29;20055;-87
2022/04/06 07:49:17;;;;;;;15.18;5.50;;;9.60;99.90;;;;;;4916417;29;20492;-88
2022/04/06 07:51:43;;;;;;;13.68;5.70;;;9.60;99.90;;;;;;4900245;29;20051;-86
2022/04/06 07:54:09;;;;;;;13.43;5.78;;;9.60;99.90;;;;;;4899056;29;20048;-87
2022/04/06 07:56:34;;;;;;;14.75;5.85;;;9.60;99.90;;;;;;4923366;29;20409;-87
2022/04/06 07:59:00;;;;;;;16.98;6.25;;;9.70;99.90;;;;;;4915952;29;20040;-86
2022/04/06 08:01:27;;;;;;;11.63;5.90;;;9.70;99.90;;;;;;4882853;29;20122;-91
2022/04/06 08:03:53;;;;;;;12.57;5.95;;;9.70;99.90;;;;;;4899769;29;20168;-87
2022/04/06 08:06:19;;;;;;;13.90;6.82;;;9.80;99.90;;;;;;4898174;29;20537;-86
2022/04/06 08:08:45;;;;;;;13.45;6.90;;;9.80;99.90;;;;;;4898853;29;20493;-86
2022/04/06 08:11:10;;;;;;;11.98;6.20;;;9.80;99.90;;;;;;4917997;29;20044;-84
2022/04/06 08:13:36;;;;;;;16.13;7.18;;;9.80;99.90;;;;;;4898529;29;20131;-85
2022/04/06 08:16:01;;;;;;;14.55;6.97;;;9.80;99.90;;;;;;4914395;29;20044;-85
2022/04/06 08:18:28;;;;;;;15.25;7.43;;;9.80;99.90;;;;;;4898475;29;20103;-84
2022/04/06 08:20:54;;;;;;;17.92;7.35;;;9.80;99.90;;;;;;4925085;29;20413;-84
2022/04/06 08:23:21;;;;;;;16.75;7.00;;;9.80;99.90;;;;;;4925570;29;20056;-86
2022/04/06 08:25:46;;;;;;;14.10;6.78;;;9.80;99.90;;;;;;4882851;29;20087;-84
2022/04/06 08:28:12;;;;;;;18.40;7.95;;;9.80;99.90;;;;;;4913990;29;20489;-86
2022/04/06 08:30:42;;;;;;;14.98;7.82;;;9.80;99.90;;;;;;4898446;29;20036;-86
2022/04/06 08:33:09;;;;;;;13.25;7.32;;;9.80;99.90;;;;;;4897234;29;20048;-87
2022/04/06 08:35:35;;;;;;;15.45;7.65;;;9.90;99.90;;;;;;4882982;29;20083;-86
2022/04/06 08:38:03;;;;;;;13.63;7.47;;;9.90;99.90;;;;;;4897386;29;20484;-86
2022/04/06 08:40:30;;;;;;;14.68;7.50;;;9.90;99.90;;;;;;4882713;29;20431;-86
2022/04/06 08:42:57;;;;;;;17.27;8.30;;;9.90;99.90;;;;;;4911535;29;20188;-88
2022/04/06 08:45:22;;;;;;;15.05;7.15;;;9.80;99.90;;;;;;4879346;29;20478;-87
2022/04/06 08:47:51;;;;;;;14.85;6.90;;;9.80;99.90;;;;;;4895298;29;20045;-87
2022/04/06 08:50:18;;;;;;;15.15;6.60;;;9.80;99.90;;;;;;4914072;29;20736;-87
2022/04/06 08:52:45;;;;;;;16.38;7.05;;;9.80;99.90;;;;;;4914892;29;20048;-88
2022/04/06 08:55:12;;;;;;;14.00;6.95;;;9.80;99.90;;;;;;4894563;29;20100;-85
2022/04/06 08:57:40;;;;;;;14.52;6.00;;;9.70;99.90;;;;;;4879525;29;20052;-87
2022/04/06 09:00:06;;;;;;;13.95;6.95;;;9.80;99.90;;;;;;4896985;29;20052;-87
2022/04/06 09:02:32;;;;;;;14.88;6.30;;;9.80;99.90;;;;;;4901001;29;20056;-87
2022/04/06 09:04:57;;;;;;;15.35;5.38;;;9.70;99.90;;;;;;4889612;29;20051;-86
2022/04/06 09:07:24;;;;;;;11.23;5.15;;;9.70;99.90;;;;;;4893107;29;20045;-88
2022/04/06 09:09:55;;;;;;;12.52;5.22;;;9.70;99.90;;;;;;4897224;29;20055;-87
2022/04/06 09:12:25;;;;;;;12.48;5.57;;;9.80;99.90;;;;;;4878279;29;20052;-87
2022/04/06 09:15:07;;;;;;;11.70;5.30;;;9.70;99.90;;;;;;4883399;29;20064;-91
2022/04/06 09:17:45;;;;;;;13.10;5.22;;;9.80;99.90;;;;;;4878968;29;20045;-88
2022/04/06 09:20:12;;;;;;;11.82;6.05;;;9.80;99.90;;;;;;4862144;29;20044;-88
2022/04/06 09:22:37;;;;;;;12.25;5.05;;;9.80;99.90;;;;;;4892865;29;20052;-89
2022/04/06 09:25:05;;;;;;;10.25;5.03;;;9.90;99.90;;;;;;4894870;29;20092;-88
2022/04/06 09:27:31;;;;;;;10.35;4.82;;;10.00;99.90;;;;;;4895204;29;20119;-87
2022/04/06 09:29:58;;;;;;;13.18;4.97;;;10.20;99.90;;;;;;4911439;29;20104;-85
2022/04/06 09:32:24;;;;;;;11.80;5.15;;;10.30;99.90;;;;;;4883495;29;20060;-88
2022/04/06 09:34:49;;;;;;;10.30;4.82;;;10.40;99.90;;;;;;4910945;29;20282;-87
2022/04/06 09:37:27;;;;;;;12.80;5.03;;;10.50;99.90;;;;;;4895097;29;20450;-87
2022/04/06 09:39:53;;;;;;;11.63;5.30;;;10.50;99.90;;;;;;4878862;29;20056;-87
2022/04/06 09:42:24;;;;;;;11.98;4.82;;;10.50;99.90;;;;;;4906755;29;20406;-87
2022/04/06 09:47:39;;;;;;;11.68;6.18;;;10.40;99.90;;;;;;4913970;29;20052;-88
2022/04/06 09:50:09;;;;;;;12.48;5.90;;;10.50;99.90;;;;;;4913867;29;20056;-86
2022/04/06 09:52:39;;;;;;;13.05;6.80;;;10.40;99.90;;;;;;4928952;29;20072;-87
2022/04/06 09:55:09;;;;;;;11.98;6.88;;;10.40;99.90;;;;;;4927964;29;20059;-88
2022/04/06 09:57:51;;;;;;;12.88;7.07;;;10.50;99.90;;;;;;4897049;29;20047;-86
2022/04/06 10:00:30;;;;;;;14.13;6.63;;;10.50;99.90;;;;;;4913351;29;20065;-87
2022/04/06 10:03:04;;;;;;;13.43;6.88;;;10.60;99.90;;;;;;4928864;29;20055;-88
2022/04/06 10:05:33;;;;;;;13.40;7.30;;;10.60;99.90;;;;;;4897651;29;20059;-87
2022/04/06 10:08:07;;;;;;;12.27;6.70;;;10.80;99.90;;;;;;4912502;29;20083;-87
2022/04/06 10:10:35;;;;;;;15.35;7.28;;;10.70;99.90;;;;;;4913813;29;20059;-89
2022/04/06 10:13:07;;;;;;;11.32;6.95;;;10.80;99.90;;;;;;4913217;29;20180;-87
2022/04/06 10:15:35;;;;;;;12.15;6.78;;;10.80;99.90;;;;;;4928229;29;20116;-86
2022/04/06 10:18:01;;;;;;;17.55;7.43;;;10.80;99.90;;;;;;4911907;29;20044;-86
2022/04/06 10:20:35;;;;;;;11.82;7.07;;;10.80;99.90;;;;;;4914291;29;20058;-87
2022/04/06 10:23:13;;;;;;;13.95;7.40;;;10.80;99.90;;;;;;4896574;29;20059;-89
2022/04/06 10:26:01;;;;;;;15.05;7.68;;;10.80;99.90;;;;;;4896926;29;20059;-87
2022/04/06 10:28:33;;;;;;;16.90;7.78;;;10.90;99.90;;;;;;4897310;29;20085;-87
2022/04/06 10:31:19;;;;;;;14.27;7.90;;;10.90;99.90;;;;;;4927994;29;20371;-87
2022/04/06 10:33:48;;;;;;;12.35;6.80;;;10.90;99.90;;;;;;4897190;29;20127;-89
2022/04/06 10:36:29;;;;;;;14.30;7.45;;;10.80;99.90;;;;;;4897113;29;20454;-89
2022/04/06 10:39:07;;;;;;;15.93;8.10;;;10.80;99.90;;;;;;4917804;29;20821;-89
2022/04/06 10:41:34;;;;;;;14.15;7.00;;;10.90;99.90;;;;;;4931814;29;20118;-88
2022/04/06 10:44:00;;;;;;;15.13;7.38;;;10.90;99.90;;;;;;4917131;29;20052;-87
2022/04/06 10:46:40;;;;;;;15.25;7.85;;;10.90;99.90;;;;;;4917968;29;20095;-88
2022/04/06 10:49:13;;;;;;;14.85;7.88;;;10.80;99.90;;;;;;4900217;29;20087;-87
2022/04/06 10:51:46;;;;;;;14.23;7.82;;;10.80;99.90;;;;;;4918015;29;20052;-86
2022/04/06 10:54:11;;;;;;;15.27;7.53;;;10.80;99.90;;;;;;4899493;29;20043;-87
2022/04/06 10:56:49;;;;;;;14.55;7.95;;;10.70;99.90;;;;;;4932590;29;20060;-87
2022/04/06 10:59:25;;;;;;;12.52;7.75;;;10.80;99.90;;;;;;4899872;29;20135;-87
2022/04/06 11:02:17;;;;;;;14.20;7.63;;;10.80;99.90;;;;;;4916248;29;20056;-90
2022/04/06 11:04:42;;;;;;;;;;;10.80;99.90;;;;;;4932152;29;20056;-90
2022/04/06 11:07:09;;;;;;;15.30;7.88;;;10.70;99.90;;;;;;4899165;29;19923;-90
2022/04/06 11:12:32;;;;;;;13.38;8.05;;;10.70;99.90;;;;;;4917469;29;20056;-86
2022/04/06 11:14:58;;;;;;;14.25;8.73;;;10.80;99.90;;;;;;4915546;29;20095;-88
2022/04/06 11:17:48;;;;;;;14.25;9.00;;;10.80;99.90;;;;;;4901042;29;20072;-87
2022/04/06 11:20:28;;;;;;;13.80;9.57;;;10.80;99.90;;;;;;4916528;29;20127;-88
2022/04/06 11:22:56;;;;;;;13.65;9.80;;;10.80;99.90;;;;;;4915093;29;20044;-87
2022/04/06 11:25:24;;;;;;;14.60;9.50;;;10.80;99.90;;;;;;4916783;29;20051;-87
2022/04/06 11:27:50;;;;;;;13.77;9.88;;;10.80;99.90;;;;;;4899783;29;20520;-87
2022/04/06 11:30:18;;;;;;;15.38;9.60;;;10.70;99.90;;;;;;4918378;29;20036;-87
2022/04/06 11:32:56;;;;;;;15.50;9.70;;;10.80;99.90;;;;;;4908505;29;20044;-87
2022/04/06 11:35:28;;;;;;;13.70;8.95;;;10.80;99.90;;;;;;4924494;29;20044;-86
2022/04/06 11:37:54;;;;;;;15.35;9.30;;;10.90;99.90;;;;;;4942976;29;20111;-86
2022/04/06 11:40:25;;;;;;;15.20;9.93;;;10.90;99.90;;;;;;4934447;29;20048;-86
2022/04/06 11:42:52;;;;;;;14.73;10.05;;;11.00;99.90;;;;;;4900230;29;20060;-86
2022/04/06 11:45:27;;;;;;;14.43;9.63;;;11.10;99.90;;;;;;4899727;29;20131;-87
2022/04/06 11:47:54;;;;;;;16.40;9.82;;;11.10;99.90;;;;;;4900062;29;20054;-86
2022/04/06 11:50:20;;;;;;;13.93;9.23;;;11.30;99.90;;;;;;4901775;29;20048;-87
2022/04/06 11:52:46;;;;;;;14.13;9.32;;;11.10;99.90;;;;;;4920993;29;20044;-85
2022/04/06 11:55:12;;;;;;;16.52;10.23;;;11.10;99.90;;;;;;4917559;29;20564;-87
2022/04/06 11:57:45;;;;;;;15.82;9.73;;;11.10;99.90;;;;;;4901096;29;20044;-88
2022/04/06 12:00:13;;;;;;;16.25;10.30;;;11.10;99.90;;;;;;4916292;29;20048;-87
2022/04/06 12:02:55;;;;;;;15.30;9.70;;;11.10;99.90;;;;;;4900397;29;20044;-86
2022/04/06 12:05:25;;;;;;;17.60;9.90;;;11.20;99.90;;;;;;4915986;29;20056;-89
2022/04/06 12:08:13;;;;;;;18.48;9.55;;;11.30;99.90;;;;;;4915979;29;20130;-86
2022/04/06 12:10:56;;;;;;;13.05;9.35;;;11.40;99.90;;;;;;4899406;29;20044;-88
2022/04/06 12:13:23;;;;;;;13.90;9.55;;;11.50;99.90;;;;;;4899331;29;20052;-87
2022/04/06 12:15:49;;;;;;;15.68;9.73;;;11.50;99.90;;;;;;4899281;29;20139;-87
2022/04/06 12:18:19;;;;;;;12.63;9.52;;;11.60;99.90;;;;;;4915316;29;20442;-87
2022/04/06 12:20:48;;;;;;;15.00;9.05;;;11.70;99.90;;;;;;4898739;29;20481;-87
2022/04/06 12:23:15;;;;;;;16.02;9.30;;;11.80;99.90;;;;;;4897816;29;20052;-88
2022/04/06 12:25:42;;;;;;;12.30;8.07;;;11.70;99.90;;;;;;4915727;29;20397;-88
2022/04/06 12:28:25;;;;;;;12.65;8.52;;;11.70;99.90;;;;;;4897976;29;20052;-91
2022/04/06 12:31:02;;;;;;;14.23;8.90;;;11.60;99.90;;;;;;4915988;29;20448;-88
2022/04/06 12:33:39;;;;;;;14.40;9.13;;;11.60;99.90;;;;;;4915514;29;20512;-87
2022/04/06 12:36:22;;;;;;;15.32;8.68;;;11.60;99.90;;;;;;4914072;29;20538;-88
2022/04/06 12:39:08;;;;;;;14.00;8.90;;;11.60;99.90;;;;;;4914421;29;20383;-87
2022/04/06 12:41:35;;;;;;;12.38;8.77;;;11.60;99.90;;;;;;4898233;29;20051;-87
2022/04/06 12:44:04;;;;;;;14.50;9.52;;;11.60;99.90;;;;;;4913173;29;20508;-86
2022/04/06 12:46:44;;;;;;;12.30;8.98;;;11.60;99.90;;;;;;4929612;29;20044;-89
2022/04/06 12:49:20;;;;;;;14.20;9.18;;;11.50;99.90;;;;;;4897344;29;20083;-88
2022/04/06 12:51:46;;;;;;;13.73;9.10;;;11.50;99.90;;;;;;4914730;29;20056;-89
2022/04/06 12:54:13;;;;;;;16.48;9.25;;;11.60;99.90;;;;;;4913150;29;20485;-87